Terminal Aerodrome Forecast
Issued by NWS

Home | Current Version | Previous Version | Text Only | Print | Product List | Glossary On
Versions: 1 2 3 4 5 6 7 8 9 10 11 12 13 14 15 16 17 18 19
000
FTUS43 KMPX 261139
TAFRNH
TAF
KRNH 261139Z 2612/2712 36004KT 3SM BR SCT004 OVC012
      TEMPO 2612/2615 1SM BR BKN004
     FM261500 01005KT 6SM BR VCSH SCT012 BKN035
     FM261800 34003KT P6SM VCSH SCT020 OVC040
     FM270000 29004KT P6SM BKN050
     FM271000 26003KT P6SM SCT050 SCT250=

USA.gov is the U.S. government's official web portal to all federal, state and local government web resources and services.